createdAt,value
2018-01-22T00:00:00.300Z,11.75
2018-01-22T00:02:27.784Z,14.25
2018-01-22T00:04:55.265Z,13.85
2018-01-22T00:07:22.742Z,15.70
2018-01-22T00:09:50.999Z,12.65
2018-01-22T00:12:18.480Z,16.98
2018-01-22T00:14:46.738Z,16.30
2018-01-22T00:17:14.216Z,15.95
2018-01-22T00:19:42.468Z,17.55
2018-01-22T00:22:11.844Z,16.05
2018-01-22T00:24:39.332Z,14.87
2018-01-22T00:27:06.812Z,12.40
2018-01-22T00:29:35.069Z,14.25
2018-01-22T00:32:02.552Z,12.68
2018-01-22T00:34:30.799Z,12.15
2018-01-22T00:36:58.275Z,17.20
2018-01-22T00:39:26.533Z,13.43
2018-01-22T00:41:54.016Z,10.88
2018-01-22T00:44:22.269Z,12.13
2018-01-22T00:46:49.744Z,11.57
2018-01-22T00:49:17.996Z,10.82
2018-01-22T00:51:45.490Z,12.40
2018-01-22T00:54:13.741Z,10.05
2018-01-22T00:56:41.222Z,13.88
2018-01-22T01:02:06.780Z,12.60
2018-01-22T01:04:34.273Z,11.18
2018-01-22T01:07:01.752Z,10.80
2018-01-22T01:09:29.240Z,11.43
2018-01-22T01:11:56.729Z,12.73
2018-01-22T01:14:24.204Z,9.88
2018-01-22T01:16:51.684Z,16.90
2018-01-22T01:19:19.940Z,10.13
2018-01-22T01:21:47.414Z,6.87
2018-01-22T01:24:14.901Z,6.32
2018-01-22T01:26:43.145Z,10.77
2018-01-22T01:29:10.628Z,9.48
2018-01-22T01:31:38.871Z,11.40
2018-01-22T01:34:06.356Z,9.45
2018-01-22T01:36:34.600Z,10.95
2018-01-22T01:39:02.100Z,12.55
2018-01-22T01:41:29.592Z,13.20
2018-01-22T01:43:57.076Z,9.73
2018-01-22T01:46:24.561Z,8.27
2018-01-22T01:49:03.949Z,10.75
2018-01-22T01:51:31.428Z,6.57
2018-01-22T01:53:58.917Z,8.55
2018-01-22T01:56:26.388Z,7.37
2018-01-22T01:58:54.641Z,7.97
2018-01-22T02:01:22.129Z,10.25
2018-01-22T02:03:50.375Z,8.77
2018-01-22T02:06:17.857Z,11.05
2018-01-22T02:08:46.154Z,12.88
2018-01-22T02:11:13.605Z,7.93
2018-01-22T02:13:50.857Z,9.52
2018-01-22T02:16:18.359Z,8.38
2018-01-22T02:18:45.841Z,12.13
2018-01-22T02:21:13.324Z,9.93
2018-01-22T02:23:40.800Z,8.80
2018-01-22T02:26:09.797Z,11.20
2018-01-22T02:28:37.282Z,10.32
2018-01-22T02:31:04.769Z,9.77
2018-01-22T02:33:32.253Z,8.38
2018-01-22T02:35:59.738Z,9.43
2018-01-22T02:38:27.989Z,7.90
2018-01-22T02:40:55.500Z,7.87
2018-01-22T02:43:22.981Z,8.55
2018-01-22T02:45:50.469Z,7.72
2018-01-22T02:48:17.944Z,7.25
2018-01-22T02:50:46.212Z,6.40
2018-01-22T02:53:13.688Z,6.93
2018-01-22T02:55:41.959Z,5.12
2018-01-22T02:58:10.220Z,5.70
2018-01-22T03:00:37.727Z,5.95
2018-01-22T03:03:05.209Z,7.10
2018-01-22T03:05:32.696Z,7.05
2018-01-22T03:08:00.200Z,6.95
2018-01-22T03:10:27.689Z,7.22
2018-01-22T03:12:55.169Z,7.07
2018-01-22T03:15:22.657Z,6.57
2018-01-22T03:17:50.902Z,3.90
2018-01-22T03:20:18.384Z,6.37
2018-01-22T03:22:46.628Z,6.00
2018-01-22T03:25:14.124Z,7.00
2018-01-22T03:27:42.377Z,4.70
2018-01-22T03:30:09.880Z,4.12
2018-01-22T03:32:37.369Z,5.05
2018-01-22T03:35:04.874Z,5.93
2018-01-22T03:37:33.170Z,4.37
2018-01-22T03:40:00.620Z,4.47
2018-01-22T03:42:28.100Z,6.65
2018-01-22T03:44:55.611Z,7.12
2018-01-22T03:47:23.339Z,7.05
2018-01-22T03:49:50.821Z,7.18
2018-01-22T03:52:18.307Z,5.75
2018-01-22T03:54:46.552Z,4.85
2018-01-22T03:57:14.032Z,4.15
2018-01-22T03:59:41.531Z,5.60
2018-01-22T04:02:09.036Z,6.70
2018-01-22T04:04:36.516Z,6.32
2018-01-22T04:07:04.773Z,5.43
2018-01-22T04:09:35.879Z,7.45
2018-01-22T04:12:03.373Z,4.00
2018-01-22T04:14:30.852Z,5.62
2018-01-22T04:16:59.114Z,5.75
2018-01-22T04:19:26.611Z,5.97
2018-01-22T04:21:54.100Z,4.15
2018-01-22T04:24:21.576Z,5.45
2018-01-22T04:26:49.064Z,3.83
2018-01-22T04:29:17.335Z,5.10
2018-01-22T04:31:45.613Z,4.95
2018-01-22T04:34:13.111Z,4.87
2018-01-22T04:36:40.597Z,5.28
2018-01-22T04:39:08.837Z,5.40
2018-01-22T04:41:36.344Z,6.18
2018-01-22T04:44:03.836Z,6.22
2018-01-22T04:46:32.098Z,5.93
2018-01-22T04:48:59.592Z,5.78
2018-01-22T04:51:27.076Z,3.92
2018-01-22T04:53:54.548Z,6.30
2018-01-22T04:56:22.028Z,5.60
2018-01-22T04:58:49.504Z,6.82
2018-01-22T05:01:17.776Z,5.47
2018-01-22T05:03:46.102Z,6.35
2018-01-22T05:06:14.309Z,5.62
2018-01-22T05:08:41.784Z,5.03
2018-01-22T05:11:10.037Z,4.82
2018-01-22T05:13:37.508Z,5.50
2018-01-22T05:16:05.007Z,5.97
2018-01-22T05:18:32.493Z,5.60
2018-01-22T05:20:59.964Z,5.20
2018-01-22T05:23:27.444Z,5.22
2018-01-22T05:25:54.931Z,5.25
2018-01-22T05:28:23.199Z,5.32
2018-01-22T05:30:51.449Z,5.70
2018-01-22T05:33:18.940Z,5.15
2018-01-22T05:35:47.176Z,7.10
2018-01-22T05:38:14.660Z,5.93
2018-01-22T05:40:42.137Z,7.15
2018-01-22T05:43:10.384Z,5.32
2018-01-22T05:45:37.865Z,6.07
2018-01-22T05:48:06.116Z,4.55
2018-01-22T05:50:33.589Z,5.45
2018-01-22T05:53:01.837Z,5.72
2018-01-22T05:55:29.316Z,5.65
2018-01-22T05:57:56.823Z,6.00
2018-01-22T06:00:24.296Z,5.85
2018-01-22T06:02:51.799Z,5.07
2018-01-22T06:05:20.045Z,5.62
2018-01-22T06:07:47.525Z,5.47
2018-01-22T06:10:15.012Z,5.45
2018-01-22T06:12:42.505Z,6.05
2018-01-22T06:15:09.982Z,5.25
2018-01-22T06:17:37.488Z,5.00
2018-01-22T06:20:05.730Z,5.00
2018-01-22T06:22:33.212Z,6.28
2018-01-22T06:25:01.468Z,4.90
2018-01-22T06:27:28.979Z,4.22
2018-01-22T06:29:56.467Z,5.18
2018-01-22T06:32:23.961Z,5.30
2018-01-22T06:34:52.199Z,9.75
2018-01-22T06:37:19.687Z,5.22
2018-01-22T06:39:47.961Z,4.65
2018-01-22T06:42:15.445Z,5.53
2018-01-22T06:44:43.688Z,19.15
2018-01-22T06:47:11.179Z,12.73
2018-01-22T06:49:39.433Z,18.37
2018-01-22T06:52:06.900Z,15.73
2018-01-22T06:54:34.388Z,16.93
2018-01-22T06:57:01.853Z,9.90
2018-01-22T06:59:29.333Z,6.37
2018-01-22T07:01:56.805Z,5.47
2018-01-22T07:04:24.296Z,6.97
2018-01-22T07:06:52.553Z,8.07
2018-01-22T07:09:20.047Z,6.77
2018-01-22T07:11:47.527Z,8.37
2018-01-22T07:14:14.999Z,8.83
2018-01-22T07:16:42.485Z,88.73
2018-01-22T07:19:09.961Z,9.33
2018-01-22T07:21:37.443Z,9.07
2018-01-22T07:24:04.921Z,8.57
2018-01-22T07:26:32.388Z,8.87
2018-01-22T07:28:59.864Z,9.77
2018-01-22T07:31:27.336Z,18.27
2018-01-22T07:33:54.829Z,41.70
2018-01-22T07:36:22.310Z,90.90
2018-01-22T07:38:49.792Z,245.53
2018-01-22T07:41:17.273Z,119.00
2018-01-22T07:43:44.748Z,11.57
2018-01-22T07:46:12.993Z,29.30
2018-01-22T07:48:40.480Z,27.63
2018-01-22T07:51:08.721Z,11.23
2018-01-22T07:53:36.223Z,19.60
2018-01-22T07:56:04.452Z,9.57
2018-01-22T07:58:31.928Z,11.20
2018-01-22T08:00:59.416Z,11.73
2018-01-22T08:03:27.691Z,36.73
2018-01-22T08:05:55.949Z,40.33
2018-01-22T08:08:23.451Z,26.40
2018-01-22T08:10:51.236Z,20.10
2018-01-22T08:13:18.725Z,23.77
2018-01-22T08:15:46.245Z,38.20
2018-01-22T08:18:13.718Z,67.43
2018-01-22T08:20:41.221Z,63.50
2018-01-22T08:23:08.694Z,73.60
2018-01-22T08:25:37.209Z,94.83
2018-01-22T08:28:04.693Z,173.20
2018-01-22T08:30:32.204Z,189.77
2018-01-22T08:32:59.695Z,208.87
2018-01-22T08:35:27.176Z,369.57
2018-01-22T08:37:54.652Z,191.87
2018-01-22T08:40:22.136Z,345.07
2018-01-22T08:42:49.621Z,217.70
2018-01-22T08:45:17.119Z,244.70
2018-01-22T08:47:44.596Z,270.87
2018-01-22T08:50:12.844Z,178.40
2018-01-22T08:52:40.320Z,216.37
2018-01-22T08:55:13.605Z,276.20
2018-01-22T08:57:41.085Z,316.40
2018-01-22T09:00:09.362Z,392.93
2018-01-22T09:02:36.853Z,288.87
2018-01-22T09:05:04.378Z,330.77
2018-01-22T09:07:32.716Z,382.07
2018-01-22T09:10:00.276Z,461.43
2018-01-22T09:12:27.786Z,371.07
2018-01-22T09:14:56.069Z,431.57
2018-01-22T09:17:23.611Z,359.77
2018-01-22T09:19:51.121Z,351.40
2018-01-22T09:22:18.631Z,467.87
2018-01-22T09:24:46.926Z,266.67
2018-01-22T09:27:14.458Z,228.27
2018-01-22T09:29:41.974Z,312.90
2018-01-22T09:32:09.482Z,375.93
2018-01-22T09:34:37.766Z,457.33
2018-01-22T09:37:06.084Z,336.57
2018-01-22T09:39:33.612Z,533.73
2018-01-22T09:42:01.148Z,449.87
2018-01-22T09:44:28.680Z,395.23
2018-01-22T09:46:56.196Z,473.00
2018-01-22T09:49:23.740Z,465.00
2018-01-22T09:51:52.110Z,402.23
2018-01-22T09:54:19.558Z,179.23
2018-01-22T09:56:47.093Z,108.00
2018-01-22T09:59:14.606Z,116.53
2018-01-22T10:01:42.889Z,148.50
2018-01-22T10:04:10.440Z,144.77
2018-01-22T10:06:37.961Z,88.90
2018-01-22T10:09:05.488Z,115.07
2018-01-22T10:11:33.000Z,95.60
2018-01-22T10:14:00.523Z,95.00
2018-01-22T10:16:28.053Z,74.27
2018-01-22T10:18:55.556Z,68.97
2018-01-22T10:21:23.274Z,99.27
2018-01-22T10:23:50.609Z,98.77
2018-01-22T10:26:18.885Z,75.03
2018-01-22T10:28:47.202Z,66.80
2018-01-22T10:31:14.756Z,98.03
2018-01-22T10:33:42.277Z,69.13
2018-01-22T10:36:10.573Z,64.30
2018-01-22T10:38:38.837Z,58.97
2018-01-22T10:41:07.191Z,66.00
2018-01-22T10:43:34.685Z,70.10
2018-01-22T10:46:02.980Z,56.43
2018-01-22T10:48:30.518Z,59.53
2018-01-22T10:50:58.874Z,52.53
2018-01-22T10:53:26.382Z,48.03
2018-01-22T10:55:53.886Z,43.87
2018-01-22T10:58:21.401Z,48.97
2018-01-22T11:00:48.913Z,57.33
2018-01-22T11:03:16.437Z,42.83
2018-01-22T11:05:43.953Z,39.93
2018-01-22T11:08:11.469Z,46.07
2018-01-22T11:10:39.018Z,45.33
2018-01-22T11:13:06.612Z,39.87
2018-01-22T11:15:40.522Z,34.27
2018-01-22T11:18:08.054Z,41.30
2018-01-22T11:20:35.625Z,30.40
2018-01-22T11:23:03.169Z,34.10
2018-01-22T11:25:30.672Z,35.73
2018-01-22T11:27:59.044Z,32.97
2018-01-22T11:30:26.537Z,32.70
2018-01-22T11:32:54.050Z,34.27
2018-01-22T11:35:21.574Z,33.90
2018-01-22T11:37:49.441Z,40.37
2018-01-22T11:40:16.956Z,37.97
2018-01-22T11:42:45.251Z,32.20
2018-01-22T11:45:12.778Z,32.43
2018-01-22T11:47:40.313Z,37.10
2018-01-22T11:50:07.876Z,30.67
2018-01-22T11:52:35.412Z,30.10
2018-01-22T11:55:02.913Z,26.57
2018-01-22T11:57:30.492Z,29.13
2018-01-22T11:59:58.821Z,28.13
2018-01-22T12:02:27.137Z,34.67
2018-01-22T12:04:54.647Z,27.77
2018-01-22T12:07:22.168Z,29.17
2018-01-22T12:09:50.697Z,26.97
2018-01-22T12:12:18.260Z,29.93
2018-01-22T12:14:45.816Z,56.77
2018-01-22T12:17:13.318Z,45.97
2018-01-22T12:19:40.853Z,33.23
2018-01-22T12:22:08.407Z,29.17
2018-01-22T12:24:35.969Z,29.17
2018-01-22T12:27:03.557Z,31.53
2018-01-22T12:29:31.061Z,27.50
2018-01-22T12:31:58.653Z,25.20
2018-01-22T12:34:26.179Z,23.43
2018-01-22T12:36:53.703Z,25.40
2018-01-22T12:39:22.001Z,28.93
2018-01-22T12:41:49.565Z,23.37
2018-01-22T12:44:17.097Z,22.13
2018-01-22T12:46:44.622Z,28.73
2018-01-22T12:49:12.159Z,24.03
2018-01-22T12:51:39.682Z,24.07
2018-01-22T12:54:07.999Z,21.63
2018-01-22T12:56:35.520Z,20.77
2018-01-22T12:59:03.834Z,23.90
2018-01-22T13:01:31.341Z,27.10
2018-01-22T13:03:58.853Z,23.90
2018-01-22T13:06:26.358Z,24.33
2018-01-22T13:08:53.878Z,22.77
2018-01-22T13:11:21.381Z,22.07
2018-01-22T13:13:48.890Z,22.70
2018-01-22T13:16:16.381Z,23.53
2018-01-22T13:18:43.895Z,22.87
2018-01-22T13:21:11.424Z,19.13
2018-01-22T13:23:38.937Z,19.80
2018-01-22T13:26:06.446Z,24.50
2018-01-22T13:28:34.832Z,21.50
2018-01-22T13:31:02.392Z,21.57
2018-01-22T13:33:30.007Z,23.80
2018-01-22T13:35:57.556Z,20.23
2018-01-22T13:38:25.084Z,19.70
2018-01-22T13:40:58.333Z,21.10
2018-01-22T13:43:25.851Z,20.33
2018-01-22T13:45:53.381Z,14.70
2018-01-22T13:48:21.684Z,21.13
2018-01-22T13:50:49.189Z,16.07
2018-01-22T13:53:16.720Z,18.27
2018-01-22T13:55:44.234Z,17.77
2018-01-22T13:58:12.558Z,23.90
2018-01-22T14:00:40.071Z,17.27
2018-01-22T14:03:08.352Z,21.00
2018-01-22T14:05:36.613Z,17.07
2018-01-22T14:08:04.137Z,20.13
2018-01-22T14:10:31.629Z,19.60
2018-01-22T14:12:59.156Z,20.00
2018-01-22T14:15:26.693Z,22.77
2018-01-22T14:17:54.207Z,21.67
2018-01-22T14:20:21.729Z,23.50
2018-01-22T14:22:49.346Z,16.93
2018-01-22T14:25:17.633Z,20.77
2018-01-22T14:27:45.912Z,16.63
2018-01-22T14:30:13.437Z,23.40
2018-01-22T14:32:40.951Z,22.73
2018-01-22T14:35:08.463Z,20.10
2018-01-22T14:37:35.999Z,20.60
2018-01-22T14:40:03.586Z,21.83
2018-01-22T14:42:31.090Z,19.03
2018-01-22T14:44:58.622Z,18.57
2018-01-22T14:47:26.197Z,21.37
2018-01-22T14:49:53.726Z,14.87
2018-01-22T14:52:22.011Z,25.77
2018-01-22T14:54:49.583Z,22.47
2018-01-22T14:57:17.093Z,19.67
2018-01-22T14:59:44.609Z,24.60
2018-01-22T15:02:12.162Z,23.17
2018-01-22T15:04:40.433Z,25.57
2018-01-22T15:07:08.757Z,22.77
2018-01-22T15:09:36.278Z,21.37
2018-01-22T15:12:04.598Z,26.20
2018-01-22T15:14:32.101Z,27.10
2018-01-22T15:17:00.378Z,22.67
2018-01-22T15:19:28.661Z,26.63
2018-01-22T15:21:56.188Z,33.90
2018-01-22T15:24:23.709Z,31.63
2018-01-22T15:26:51.219Z,33.80
2018-01-22T15:29:18.746Z,46.80
2018-01-22T15:31:46.259Z,37.37
2018-01-22T15:34:14.553Z,64.07
2018-01-22T15:36:42.068Z,51.53
2018-01-22T15:39:09.588Z,34.17
2018-01-22T15:41:37.095Z,32.67
2018-01-22T15:44:04.693Z,34.20
2018-01-22T15:46:32.205Z,31.50
2018-01-22T15:48:59.793Z,30.80
2018-01-22T15:51:27.321Z,45.13
2018-01-22T15:53:54.848Z,83.33
2018-01-22T15:56:22.363Z,73.90
2018-01-22T15:58:49.905Z,45.17
2018-01-22T16:01:17.438Z,35.37
2018-01-22T16:03:44.941Z,69.83
2018-01-22T16:06:12.463Z,31.63
2018-01-22T16:08:40.003Z,30.10
2018-01-22T16:11:07.537Z,37.33
2018-01-22T16:13:35.098Z,38.33
2018-01-22T16:16:03.357Z,27.60
2018-01-22T16:18:30.858Z,38.10
2018-01-22T16:20:58.394Z,46.87
2018-01-22T16:23:25.950Z,24.23
2018-01-22T16:25:54.405Z,27.10
2018-01-22T16:28:22.016Z,30.83
2018-01-22T16:30:49.537Z,27.80
2018-01-22T16:33:17.065Z,24.07
2018-01-22T16:35:44.594Z,24.33
2018-01-22T16:38:12.146Z,33.33
2018-01-22T16:40:39.665Z,22.53
2018-01-22T16:43:07.157Z,29.40
2018-01-22T16:45:35.441Z,23.63
2018-01-22T16:48:02.969Z,27.03
2018-01-22T16:50:30.493Z,51.20
2018-01-22T16:52:58.029Z,41.03
2018-01-22T16:55:25.558Z,32.23
2018-01-22T16:57:53.845Z,57.37
2018-01-22T17:00:22.170Z,36.13
2018-01-22T17:02:49.708Z,93.23
2018-01-22T17:05:17.241Z,64.27
2018-01-22T17:07:45.552Z,46.83
2018-01-22T17:10:13.085Z,34.80
2018-01-22T17:12:40.612Z,30.00
2018-01-22T17:15:08.144Z,29.47
2018-01-22T17:17:35.681Z,33.07
2018-01-22T17:20:03.198Z,31.60
2018-01-22T17:22:30.693Z,36.67
2018-01-22T17:24:58.213Z,26.90
2018-01-22T17:27:25.716Z,24.93
2018-01-22T17:29:53.223Z,27.83
2018-01-22T17:32:21.062Z,29.87
2018-01-22T17:34:48.570Z,35.87
2018-01-22T17:37:16.880Z,25.43
2018-01-22T17:39:44.402Z,25.40
2018-01-22T17:42:12.700Z,33.23
2018-01-22T17:44:40.284Z,28.87
2018-01-22T17:47:07.844Z,35.93
2018-01-22T17:49:35.372Z,36.67
2018-01-22T17:52:03.670Z,26.10
2018-01-22T17:54:31.203Z,29.70
2018-01-22T17:56:59.498Z,29.10
2018-01-22T17:59:26.982Z,30.33
2018-01-22T18:01:54.519Z,28.23
2018-01-22T18:04:22.097Z,33.00
2018-01-22T18:06:49.642Z,34.23
2018-01-22T18:09:17.150Z,33.37
2018-01-22T18:11:44.692Z,35.80
2018-01-22T18:14:12.235Z,32.80
2018-01-22T18:16:39.786Z,31.53
2018-01-22T18:19:07.395Z,30.80
2018-01-22T18:21:34.982Z,30.50
2018-01-22T18:24:03.336Z,26.17
2018-01-22T18:26:30.893Z,29.83
2018-01-22T18:28:58.437Z,29.43
2018-01-22T18:31:26.061Z,26.03
2018-01-22T18:33:53.605Z,28.40
2018-01-22T18:36:21.922Z,24.00
2018-01-22T18:38:49.488Z,37.60
2018-01-22T18:41:17.008Z,35.10
2018-01-22T18:43:44.553Z,38.33
2018-01-22T18:46:12.121Z,34.03
2018-01-22T18:48:40.464Z,49.40
2018-01-22T18:51:07.988Z,62.23
2018-01-22T18:53:35.505Z,37.17
2018-01-22T18:56:03.886Z,69.03
2018-01-22T18:58:31.497Z,28.47
2018-01-22T19:00:59.001Z,44.07
2018-01-22T19:03:26.521Z,35.13
2018-01-22T19:05:54.017Z,50.67
2018-01-22T19:08:21.529Z,41.27
2018-01-22T19:10:49.096Z,33.27
2018-01-22T19:13:16.636Z,30.50
2018-01-22T19:15:44.169Z,29.03
2018-01-22T19:18:12.501Z,33.23
2018-01-22T19:20:39.997Z,33.23
2018-01-22T19:23:07.628Z,32.07
2018-01-22T19:25:35.176Z,28.40
2018-01-22T19:28:02.693Z,33.57
2018-01-22T19:30:31.064Z,33.50
2018-01-22T19:32:59.381Z,34.90
2018-01-22T19:35:26.939Z,39.33
2018-01-22T19:37:54.448Z,41.70
2018-01-22T19:40:22.067Z,33.60
2018-01-22T19:42:50.448Z,34.70
2018-01-22T19:45:17.962Z,36.90
2018-01-22T19:47:45.485Z,39.13
2018-01-22T19:50:13.058Z,31.40
2018-01-22T19:52:42.101Z,47.70
2018-01-22T19:55:09.661Z,38.57
2018-01-22T19:57:37.937Z,38.03
2018-01-22T20:00:06.214Z,42.33
2018-01-22T20:02:33.810Z,42.93
2018-01-22T20:05:01.414Z,42.93
2018-01-22T20:07:29.024Z,39.50
2018-01-22T20:09:56.544Z,34.97
2018-01-22T20:12:24.920Z,38.60
2018-01-22T20:14:53.241Z,37.30
2018-01-22T20:17:20.770Z,36.60
2018-01-22T20:19:49.068Z,43.23
2018-01-22T20:22:16.664Z,44.03
2018-01-22T20:24:44.281Z,44.50
2018-01-22T20:27:11.830Z,42.13
2018-01-22T20:29:40.166Z,40.30
2018-01-22T20:32:07.681Z,39.50
2018-01-22T20:34:35.255Z,40.67
2018-01-22T20:37:02.784Z,32.20
2018-01-22T20:39:31.106Z,37.83
2018-01-22T20:41:58.686Z,40.03
2018-01-22T20:44:26.301Z,48.47
2018-01-22T20:46:53.876Z,39.93
2018-01-22T20:49:21.508Z,35.10
2018-01-22T20:51:49.869Z,53.33
2018-01-22T20:54:17.398Z,43.30
2018-01-22T20:56:44.956Z,38.97
2018-01-22T20:59:12.499Z,37.90
2018-01-22T21:01:40.072Z,39.30
2018-01-22T21:04:07.664Z,42.10
2018-01-22T21:06:35.217Z,45.33
2018-01-22T21:09:02.840Z,38.97
2018-01-22T21:11:30.366Z,49.27
2018-01-22T21:13:58.770Z,50.20
2018-01-22T21:16:26.297Z,50.50
2018-01-22T21:18:54.681Z,45.97
2018-01-22T21:21:23.076Z,44.43
2018-01-22T21:23:51.461Z,46.57
2018-01-22T21:26:18.990Z,48.60
2018-01-22T21:28:46.550Z,53.87
2018-01-22T21:31:14.049Z,51.77
2018-01-22T21:33:41.581Z,49.13
2018-01-22T21:36:09.920Z,47.10
2018-01-22T21:38:37.516Z,39.33
2018-01-22T21:41:05.057Z,40.70
2018-01-22T21:43:32.584Z,40.07
2018-01-22T21:46:00.101Z,36.40
2018-01-22T21:48:28.420Z,29.83
2018-01-22T21:50:56.026Z,40.10
2018-01-22T21:53:23.635Z,34.73
2018-01-22T21:55:51.197Z,53.53
2018-01-22T21:58:18.782Z,45.60
2018-01-22T22:00:46.389Z,39.93
2018-01-22T22:03:14.790Z,39.40
2018-01-22T22:05:42.372Z,41.03
2018-01-22T22:08:09.911Z,50.97
2018-01-22T22:10:37.476Z,59.50
2018-01-22T22:13:04.993Z,98.50
2018-01-22T22:15:33.361Z,34.30
2018-01-22T22:18:00.888Z,62.20
2018-01-22T22:20:28.411Z,61.80
2018-01-22T22:22:56.722Z,105.53
2018-01-22T22:25:24.230Z,232.47
2018-01-22T22:27:51.771Z,60.50
2018-01-22T22:30:19.310Z,109.30
2018-01-22T22:32:46.818Z,57.87
2018-01-22T22:35:15.212Z,87.13
2018-01-22T22:37:42.753Z,76.10
2018-01-22T22:40:11.055Z,127.07
2018-01-22T22:42:38.550Z,32.53
2018-01-22T22:45:06.078Z,57.17
2018-01-22T22:47:33.565Z,69.87
2018-01-22T22:50:01.071Z,41.40
2018-01-22T22:52:29.365Z,185.90
2018-01-22T22:54:56.943Z,94.33
2018-01-22T22:57:24.451Z,96.33
2018-01-22T22:59:51.980Z,43.57
2018-01-22T23:02:19.485Z,34.63
2018-01-22T23:04:47.815Z,57.63
2018-01-22T23:07:15.337Z,40.53
2018-01-22T23:09:43.621Z,41.47
2018-01-22T23:12:11.126Z,40.17
2018-01-22T23:14:38.687Z,34.77
2018-01-22T23:17:06.964Z,33.87
2018-01-22T23:19:34.473Z,41.17
2018-01-22T23:22:02.001Z,43.00
2018-01-22T23:24:29.544Z,43.37
2018-01-22T23:26:57.139Z,39.80
2018-01-22T23:29:25.436Z,37.07
2018-01-22T23:31:52.950Z,51.57
2018-01-22T23:34:20.553Z,39.30
2018-01-22T23:36:48.072Z,41.87
2018-01-22T23:39:15.665Z,38.30
2018-01-22T23:41:43.937Z,38.20
2018-01-22T23:44:12.234Z,42.87
2018-01-22T23:46:39.737Z,37.87
2018-01-22T23:49:07.265Z,36.27
2018-01-22T23:51:34.769Z,28.47
2018-01-22T23:54:02.301Z,38.70
2018-01-22T23:56:29.840Z,37.30
2018-01-22T23:58:57.358Z,48.87
